Terminal Aerodrome Forecast
Issued by NWS Sterling, VA

Home | Current Version | Previous Version | Text Only | Print | Product List | Glossary On
Versions: 1 2 3 4 5 6 7 8 9 10 11 12 13 14 15 16 17 18 19 20 21 22 23 24 25 26
000
FTUS41 KLWX 012300
TAFIAD
TAF
KIAD 012320Z 0200/0306 00000KT P6SM SCT040
     FM020200 00000KT P6SM SCT140
     FM020600 00000KT 5SM BR SCT010 BKN250
     FM020900 00000KT 2SM BR SCT010 BKN030
     FM021400 00000KT P6SM FEW010 SCT025
     FM022100 12004KT P6SM SCT250
     FM030300 00000KT P6SM BKN250=

USA.gov is the U.S. government's official web portal to all federal, state and local government web resources and services.